Time;durP1;ratioP1;P1;durP2;ratioP2;P2;SDS_P1;SDS_P2;PMS_P1;PMS_P2;Temp;Humidity;BMP_temperature;BMP_pressure;BME280_temperature;BME280_humidity;BME280_pressure;Samples;Min_cycle;Max_cycle;Signal;HPM_P1;HPM_P2
2022/08/16 00:01:05;;;;;;;7.65;4.45;;;;;;;;;;1647901;86;21082;-66
2022/08/16 00:03:31;;;;;;;7.12;4.03;;;;;;;;;;1639952;86;21119;-67
2022/08/16 00:05:56;;;;;;;7.37;4.20;;;;;;;;;;1624770;87;21037;-67
2022/08/16 00:08:22;;;;;;;7.20;4.35;;;;;;;;;;1641164;87;21116;-66
2022/08/16 00:10:49;;;;;;;6.90;4.70;;;;;;;;;;1649934;86;21061;-67
2022/08/16 00:13:15;;;;;;;7.58;4.33;;;;;;;;;;1625619;87;21561;-67
2022/08/16 00:15:42;;;;;;;5.90;3.60;;;;;;;;;;1650175;87;21423;-67
2022/08/16 00:18:09;;;;;;;5.62;3.83;;;;;;;;;;1644214;86;21119;-67
2022/08/16 00:20:35;;;;;;;7.97;4.10;;;;;;;;;;1643276;87;21572;-68
2022/08/16 00:23:01;;;;;;;8.38;4.50;;;;;;;;;;1631410;87;21061;-68
2022/08/16 00:25:27;;;;;;;9.43;4.30;;;;;;;;;;1617757;89;21092;-68
2022/08/16 00:27:53;;;;;;;7.10;4.15;;;;;;;;;;1632973;87;21557;-68
2022/08/16 00:30:20;;;;;;;7.83;4.58;;;;;;;;;;1644332;87;21105;-67
2022/08/16 00:32:47;;;;;;;7.80;4.37;;;;;;;;;;1643668;87;21587;-67
2022/08/16 00:35:14;;;;;;;5.83;3.80;;;;;;;;;;1670947;86;21067;-67
2022/08/16 00:37:40;;;;;;;9.90;4.40;;;;;;;;;;1668775;86;21147;-68
2022/08/16 00:40:07;;;;;;;9.25;4.10;;;;;;;;;;1644578;86;21088;-67
2022/08/16 00:42:33;;;;;;;6.12;4.05;;;;;;;;;;1663420;86;21646;-66
2022/08/16 00:45:01;;;;;;;5.50;4.15;;;;;;;;;;1672407;86;21119;-67
2022/08/16 00:47:28;;;;;;;7.37;4.03;;;;;;;;;;1647381;86;21635;-67
2022/08/16 00:49:54;;;;;;;6.67;3.92;;;;;;;;;;1650075;86;21602;-66
2022/08/16 00:52:20;;;;;;;5.85;3.90;;;;;;;;;;1638957;87;21559;-67
2022/08/16 00:54:46;;;;;;;7.25;4.25;;;;;;;;;;1633681;86;21091;-67
2022/08/16 00:57:12;;;;;;;8.08;3.92;;;;;;;;;;1633780;87;21103;-67
2022/08/16 00:59:38;;;;;;;8.65;3.75;;;;;;;;;;1656477;86;21076;-67
2022/08/16 01:08:05;;;;;;;9.73;4.50;;;;;;;;;;1615654;89;21692;-71
2022/08/16 01:10:31;;;;;;;5.97;3.75;;;;;;;;;;1616193;89;21084;-71
2022/08/16 01:12:58;;;;;;;7.12;4.58;;;;;;;;;;1617501;89;21090;-71
2022/08/16 01:15:24;;;;;;;6.08;3.70;;;;;;;;;;1617492;89;21640;-71
2022/08/16 01:17:50;;;;;;;8.15;4.10;;;;;;;;;;1617578;89;21095;-71
2022/08/16 01:20:16;;;;;;;6.67;4.78;;;;;;;;;;1611326;89;21055;-73
2022/08/16 01:22:44;;;;;;;6.37;3.95;;;;;;;;;;1617337;89;21100;-72
2022/08/16 01:25:12;;;;;;;7.28;4.20;;;;;;;;;;1617534;89;21097;-72
2022/08/16 01:27:40;;;;;;;9.90;4.30;;;;;;;;;;1617541;89;21033;-72
2022/08/16 01:30:08;;;;;;;5.87;4.15;;;;;;;;;;1617398;89;21036;-72
2022/08/16 01:32:37;;;;;;;8.68;4.65;;;;;;;;;;1617377;89;21109;-71
2022/08/16 01:35:04;;;;;;;10.60;4.47;;;;;;;;;;1617537;89;21021;-71
2022/08/16 01:37:32;;;;;;;6.72;4.03;;;;;;;;;;1611554;88;21104;-71
2022/08/16 01:39:58;;;;;;;5.78;4.60;;;;;;;;;;1617362;87;21073;-72
2022/08/16 01:42:25;;;;;;;5.97;4.60;;;;;;;;;;1617674;89;21545;-74
2022/08/16 01:44:51;;;;;;;10.85;5.00;;;;;;;;;;1617497;89;21873;-72
2022/08/16 01:47:17;;;;;;;8.20;4.62;;;;;;;;;;1617510;89;21056;-72
2022/08/16 01:49:43;;;;;;;6.58;3.85;;;;;;;;;;1617566;89;21085;-71
2022/08/16 01:52:11;;;;;;;7.65;4.30;;;;;;;;;;1617483;89;21036;-71
2022/08/16 01:54:42;;;;;;;7.85;4.50;;;;;;;;;;1615670;89;21073;-71
2022/08/16 01:57:08;;;;;;;9.93;4.58;;;;;;;;;;1617590;89;21036;-71
2022/08/16 01:59:35;;;;;;;7.25;4.80;;;;;;;;;;1617433;89;21045;-71
2022/08/16 02:02:02;;;;;;;6.42;4.75;;;;;;;;;;1617380;89;21045;-71
2022/08/16 02:04:28;;;;;;;6.87;4.05;;;;;;;;;;1600597;89;21135;-71
2022/08/16 02:06:54;;;;;;;7.95;3.83;;;;;;;;;;1597166;90;21068;-72
2022/08/16 02:09:21;;;;;;;7.33;4.00;;;;;;;;;;1601365;88;21606;-72
2022/08/16 02:11:51;;;;;;;8.85;4.30;;;;;;;;;;1643857;87;21048;-71
2022/08/16 02:14:17;;;;;;;5.78;4.05;;;;;;;;;;1626931;87;21629;-71
2022/08/16 02:16:43;;;;;;;7.25;4.33;;;;;;;;;;1627570;88;21294;-71
2022/08/16 02:19:10;;;;;;;8.00;4.50;;;;;;;;;;1634368;87;21049;-71
2022/08/16 02:21:36;;;;;;;10.93;4.72;;;;;;;;;;1662116;85;21063;-71
2022/08/16 02:24:02;;;;;;;6.15;4.75;;;;;;;;;;1644257;87;21056;-71
2022/08/16 02:26:29;;;;;;;7.17;4.97;;;;;;;;;;1656412;85;21057;-72
2022/08/16 02:28:55;;;;;;;5.47;4.00;;;;;;;;;;1649375;87;21068;-72
2022/08/16 02:31:21;;;;;;;5.75;3.95;;;;;;;;;;1667899;85;21082;-72
2022/08/16 02:33:48;;;;;;;7.75;4.45;;;;;;;;;;1649536;87;21104;-72
2022/08/16 02:36:16;;;;;;;8.50;4.72;;;;;;;;;;1625694;87;21065;-72
2022/08/16 02:38:42;;;;;;;9.83;5.00;;;;;;;;;;1643220;87;21013;-70
2022/08/16 02:41:08;;;;;;;5.45;3.83;;;;;;;;;;1659150;85;21606;-73
2022/08/16 02:43:35;;;;;;;5.97;3.90;;;;;;;;;;1626377;87;21045;-71
2022/08/16 02:46:03;;;;;;;8.38;4.62;;;;;;;;;;1640289;87;21015;-72
2022/08/16 02:48:30;;;;;;;6.05;4.22;;;;;;;;;;1625807;87;21037;-72
2022/08/16 02:50:57;;;;;;;6.53;4.30;;;;;;;;;;1638709;86;21571;-72
2022/08/16 02:53:23;;;;;;;7.17;4.70;;;;;;;;;;1646922;87;21048;-70
2022/08/16 02:55:50;;;;;;;7.45;4.40;;;;;;;;;;1619644;87;21524;-70
2022/08/16 02:58:17;;;;;;;6.25;4.15;;;;;;;;;;1625262;87;21084;-71
2022/08/16 03:00:43;;;;;;;9.20;5.00;;;;;;;;;;1627185;87;21639;-71
2022/08/16 03:04:03;;;;;;;6.22;4.20;;;;;;;;;;1801273;79;23034;-66
2022/08/16 03:06:30;;;;;;;6.45;4.55;;;;;;;;;;1750807;82;21498;-66
2022/08/16 03:08:58;;;;;;;7.22;4.30;;;;;;;;;;1723229;82;21009;-66
2022/08/16 03:11:25;;;;;;;8.03;4.87;;;;;;;;;;1729763;82;21008;-66
2022/08/16 03:13:52;;;;;;;7.53;4.62;;;;;;;;;;1725294;82;21523;-66
2022/08/16 03:16:18;;;;;;;10.08;5.67;;;;;;;;;;1725950;82;20981;-65
2022/08/16 03:18:44;;;;;;;5.87;4.20;;;;;;;;;;1725468;82;21009;-66
2022/08/16 03:21:11;;;;;;;8.55;5.03;;;;;;;;;;1734533;82;21037;-66
2022/08/16 03:23:38;;;;;;;6.58;5.40;;;;;;;;;;1744024;82;21539;-67
2022/08/16 03:26:07;;;;;;;6.60;4.80;;;;;;;;;;1745054;82;21056;-67
2022/08/16 03:28:33;;;;;;;11.33;4.97;;;;;;;;;;1726955;82;21555;-67
2022/08/16 03:31:00;;;;;;;5.80;4.60;;;;;;;;;;1723703;82;21111;-67
2022/08/16 03:33:26;;;;;;;8.25;4.42;;;;;;;;;;1726831;82;21088;-67
2022/08/16 03:35:58;;;;;;;7.50;4.90;;;;;;;;;;1746606;82;21068;-67
2022/08/16 03:38:27;;;;;;;6.58;4.45;;;;;;;;;;1751894;82;21095;-67
2022/08/16 03:40:55;;;;;;;6.62;5.25;;;;;;;;;;1752009;82;21071;-67
2022/08/16 03:43:23;;;;;;;6.37;4.53;;;;;;;;;;1718603;82;20953;-67
2022/08/16 03:45:50;;;;;;;6.10;4.95;;;;;;;;;;1735299;82;21009;-67
2022/08/16 03:48:16;;;;;;;7.22;4.70;;;;;;;;;;1741500;82;21060;-67
2022/08/16 03:50:43;;;;;;;6.25;4.47;;;;;;;;;;1750572;82;21095;-67
2022/08/16 03:53:09;;;;;;;6.00;4.50;;;;;;;;;;1743336;82;21555;-67
2022/08/16 03:55:35;;;;;;;7.70;5.03;;;;;;;;;;1736120;82;21048;-66
2022/08/16 03:58:01;;;;;;;7.42;4.62;;;;;;;;;;1744879;82;21072;-66
2022/08/16 04:00:29;;;;;;;6.55;4.42;;;;;;;;;;1743930;82;21072;-67
2022/08/16 04:02:57;;;;;;;6.65;4.40;;;;;;;;;;1740187;81;22115;-67
2022/08/16 04:05:24;;;;;;;6.95;4.70;;;;;;;;;;1745655;82;21068;-67
2022/08/16 04:07:51;;;;;;;7.03;5.05;;;;;;;;;;1732080;82;21048;-67
2022/08/16 04:10:17;;;;;;;7.55;5.22;;;;;;;;;;1723865;83;21573;-67
2022/08/16 04:12:44;;;;;;;7.17;4.97;;;;;;;;;;1726679;82;21473;-67
2022/08/16 04:15:11;;;;;;;9.98;4.95;;;;;;;;;;1753373;82;21056;-67
2022/08/16 04:17:39;;;;;;;6.78;4.67;;;;;;;;;;1749427;82;21051;-67
2022/08/16 04:20:07;;;;;;;5.65;4.70;;;;;;;;;;1752699;82;21080;-67
2022/08/16 04:22:34;;;;;;;6.97;4.90;;;;;;;;;;1753040;82;21021;-67
2022/08/16 04:25:00;;;;;;;8.40;5.17;;;;;;;;;;1745722;82;21001;-67
2022/08/16 04:27:28;;;;;;;7.28;4.87;;;;;;;;;;1750835;82;21068;-68
2022/08/16 04:29:56;;;;;;;7.35;5.15;;;;;;;;;;1736956;82;21115;-67
2022/08/16 04:32:22;;;;;;;11.00;5.37;;;;;;;;;;1723459;83;21044;-67
2022/08/16 04:34:50;;;;;;;8.90;5.20;;;;;;;;;;1745052;82;21579;-67
2022/08/16 04:37:17;;;;;;;10.05;5.53;;;;;;;;;;1753462;82;21064;-66
2022/08/16 04:39:45;;;;;;;6.97;4.53;;;;;;;;;;1746824;82;21067;-67
2022/08/16 04:42:12;;;;;;;7.83;5.12;;;;;;;;;;1753528;82;21028;-67
2022/08/16 04:44:38;;;;;;;7.15;5.30;;;;;;;;;;1743513;82;21020;-67
2022/08/16 04:47:04;;;;;;;7.75;5.28;;;;;;;;;;1682435;85;21117;-68
2022/08/16 04:49:31;;;;;;;6.58;4.80;;;;;;;;;;1723731;82;21068;-68
2022/08/16 04:51:59;;;;;;;7.60;4.65;;;;;;;;;;1723403;83;21032;-68
2022/08/16 04:54:25;;;;;;;8.50;5.20;;;;;;;;;;1735007;82;21216;-68
2022/08/16 04:56:51;;;;;;;9.00;5.40;;;;;;;;;;1753400;82;21028;-66
2022/08/16 04:59:18;;;;;;;9.73;5.22;;;;;;;;;;1736632;82;21074;-68
2022/08/16 05:01:44;;;;;;;9.25;5.42;;;;;;;;;;1686401;85;21153;-67
2022/08/16 05:04:11;;;;;;;7.15;5.05;;;;;;;;;;1691725;83;21123;-67
2022/08/16 05:06:39;;;;;;;9.10;5.22;;;;;;;;;;1690945;85;21080;-68
2022/08/16 05:09:06;;;;;;;10.28;4.80;;;;;;;;;;1709950;83;21069;-67
2022/08/16 05:11:32;;;;;;;8.75;5.60;;;;;;;;;;1720022;83;21081;-68
2022/08/16 05:14:00;;;;;;;9.03;5.85;;;;;;;;;;1719424;83;21084;-68
2022/08/16 05:16:27;;;;;;;7.65;4.78;;;;;;;;;;1719711;83;21080;-66
2022/08/16 05:18:56;;;;;;;11.35;5.22;;;;;;;;;;1679681;83;21028;-67
2022/08/16 05:21:23;;;;;;;6.35;5.22;;;;;;;;;;1707539;83;20997;-67
2022/08/16 05:23:51;;;;;;;9.18;5.72;;;;;;;;;;1715023;83;21044;-68
2022/08/16 05:26:17;;;;;;;7.47;5.25;;;;;;;;;;1709763;83;21076;-68
2022/08/16 05:28:44;;;;;;;8.20;5.20;;;;;;;;;;1694038;83;21069;-67
2022/08/16 05:31:10;;;;;;;10.00;5.45;;;;;;;;;;1681932;83;22364;-66
2022/08/16 05:33:37;;;;;;;10.15;6.15;;;;;;;;;;1712839;83;21076;-66
2022/08/16 05:36:05;;;;;;;8.65;5.10;;;;;;;;;;1718897;83;21048;-68
2022/08/16 05:38:36;;;;;;;8.73;4.90;;;;;;;;;;1707572;83;21092;-67
2022/08/16 05:41:03;;;;;;;8.70;5.30;;;;;;;;;;1703552;83;21064;-69
2022/08/16 05:43:33;;;;;;;9.33;5.00;;;;;;;;;;1708624;83;21102;-68
2022/08/16 05:46:00;;;;;;;10.75;5.35;;;;;;;;;;1686561;85;21057;-70
2022/08/16 05:48:26;;;;;;;7.72;4.80;;;;;;;;;;1675093;83;21048;-69
2022/08/16 05:50:56;;;;;;;10.15;4.87;;;;;;;;;;1713567;83;21087;-69
2022/08/16 05:53:22;;;;;;;9.03;5.00;;;;;;;;;;1694221;83;21049;-69
2022/08/16 05:55:50;;;;;;;7.30;4.75;;;;;;;;;;1688273;85;21063;-68
2022/08/16 05:58:16;;;;;;;7.08;5.08;;;;;;;;;;1709281;83;21552;-69
2022/08/16 06:00:42;;;;;;;6.20;4.95;;;;;;;;;;1710351;83;21080;-69
2022/08/16 06:03:08;;;;;;;7.40;4.75;;;;;;;;;;1686929;83;21056;-68
2022/08/16 06:05:42;;;;;;;7.50;5.42;;;;;;;;;;1690980;84;21557;-67
2022/08/16 06:08:08;;;;;;;9.23;5.30;;;;;;;;;;1691031;83;21029;-67
2022/08/16 06:10:36;;;;;;;7.83;5.20;;;;;;;;;;1693857;84;21100;-67
2022/08/16 06:13:03;;;;;;;10.75;5.25;;;;;;;;;;1701703;84;21078;-67
2022/08/16 06:15:30;;;;;;;10.60;5.00;;;;;;;;;;1731998;82;21040;-68
2022/08/16 06:17:58;;;;;;;8.30;5.37;;;;;;;;;;1731474;82;21001;-68
2022/08/16 06:20:25;;;;;;;9.93;5.50;;;;;;;;;;1734275;82;21013;-67
2022/08/16 06:22:55;;;;;;;8.08;4.87;;;;;;;;;;1733771;82;21064;-67
2022/08/16 06:25:21;;;;;;;8.55;5.15;;;;;;;;;;1729263;82;21049;-67
2022/08/16 06:27:48;;;;;;;9.70;5.12;;;;;;;;;;1732857;82;21068;-67
2022/08/16 06:30:15;;;;;;;6.28;5.00;;;;;;;;;;1734868;82;20997;-67
2022/08/16 06:32:41;;;;;;;7.95;5.28;;;;;;;;;;1661645;84;21484;-67
2022/08/16 06:35:09;;;;;;;9.90;5.35;;;;;;;;;;1727405;82;21056;-67
2022/08/16 06:37:35;;;;;;;8.53;5.03;;;;;;;;;;1734930;82;21031;-67
2022/08/16 06:40:03;;;;;;;9.20;5.37;;;;;;;;;;1735116;82;21040;-66
2022/08/16 06:42:31;;;;;;;11.55;6.50;;;;;;;;;;1742331;82;21009;-67
2022/08/16 06:45:00;;;;;;;10.05;5.85;;;;;;;;;;1722810;82;21049;-67
2022/08/16 06:47:31;;;;;;;15.98;6.60;;;;;;;;;;1719169;80;21466;-68
2022/08/16 06:49:58;;;;;;;10.30;6.03;;;;;;;;;;1728072;82;21029;-66
2022/08/16 06:52:29;;;;;;;14.25;5.53;;;;;;;;;;1748442;82;21064;-67
2022/08/16 06:54:54;;;;;;;9.83;5.87;;;;;;;;;;1712514;82;21019;-67
2022/08/16 06:57:20;;;;;;;8.95;5.28;;;;;;;;;;1706137;82;21579;-66
2022/08/16 06:59:47;;;;;;;11.25;6.10;;;;;;;;;;1704431;84;21044;-67
2022/08/16 07:02:13;;;;;;;9.55;5.87;;;;;;;;;;1706737;82;21040;-65
2022/08/16 07:04:41;;;;;;;7.95;5.15;;;;;;;;;;1742560;80;21564;-66
2022/08/16 07:07:12;;;;;;;11.08;5.70;;;;;;;;;;1712679;82;21048;-67
2022/08/16 07:09:38;;;;;;;16.27;6.70;;;;;;;;;;1726869;82;21041;-65
2022/08/16 07:23:58;;;;;;;10.85;6.58;;;;;;;;;;1785413;80;22943;-64
2022/08/16 07:26:25;;;;;;;16.17;7.53;;;;;;;;;;1754755;81;21106;-65
2022/08/16 07:28:52;;;;;;;11.10;6.33;;;;;;;;;;1758577;80;21468;-65
2022/08/16 07:31:18;;;;;;;10.98;6.30;;;;;;;;;;1776992;80;21024;-65
2022/08/16 07:33:45;;;;;;;9.58;5.70;;;;;;;;;;1743650;80;21048;-64
2022/08/16 07:36:11;;;;;;;11.45;6.30;;;;;;;;;;1766499;80;20990;-65
2022/08/16 07:38:40;;;;;;;7.12;5.37;;;;;;;;;;1742040;82;21021;-65
2022/08/16 07:41:07;;;;;;;11.00;6.00;;;;;;;;;;1777874;80;21294;-64
2022/08/16 07:43:34;;;;;;;8.03;5.67;;;;;;;;;;1725141;82;21023;-65
2022/08/16 07:46:02;;;;;;;9.63;5.40;;;;;;;;;;1742212;81;21091;-66
2022/08/16 07:48:30;;;;;;;7.37;4.72;;;;;;;;;;1760226;80;21627;-66
2022/08/16 07:50:56;;;;;;;8.80;5.22;;;;;;;;;;1793387;80;21055;-67
2022/08/16 07:53:23;;;;;;;7.70;4.33;;;;;;;;;;1792630;80;21115;-67
2022/08/16 07:55:50;;;;;;;7.22;5.17;;;;;;;;;;1748585;81;21552;-67
2022/08/16 07:59:14;;;;;;;11.60;6.08;;;;;;;;;;1814489;78;23063;-74
2022/08/16 08:01:40;;;;;;;8.38;5.25;;;;;;;;;;1788049;80;21024;-74
2022/08/16 08:04:09;;;;;;;9.13;4.83;;;;;;;;;;1746222;80;21006;-75
2022/08/16 08:06:35;;;;;;;9.73;5.03;;;;;;;;;;1782275;79;20996;-74
2022/08/16 08:09:03;;;;;;;9.00;5.10;;;;;;;;;;1779296;79;21048;-74
2022/08/16 08:11:30;;;;;;;7.35;4.55;;;;;;;;;;1791711;79;21051;-73
2022/08/16 08:14:01;;;;;;;9.03;4.87;;;;;;;;;;1780142;79;21045;-72
2022/08/16 08:16:27;;;;;;;7.95;4.50;;;;;;;;;;1784139;79;21586;-72
2022/08/16 08:18:54;;;;;;;6.53;4.10;;;;;;;;;;1790968;79;20999;-73
2022/08/16 08:23:59;;;;;;;7.22;3.95;;;;;;;;;;1805426;78;22761;-72
2022/08/16 08:26:27;;;;;;;5.20;3.85;;;;;;;;;;1788023;80;21080;-73
2022/08/16 08:28:53;;;;;;;6.83;3.77;;;;;;;;;;1786254;79;21008;-73
2022/08/16 08:31:21;;;;;;;6.65;3.90;;;;;;;;;;1789965;79;21000;-66
2022/08/16 08:33:47;;;;;;;4.50;3.72;;;;;;;;;;1791965;79;21008;-67
2022/08/16 08:36:14;;;;;;;8.70;3.70;;;;;;;;;;1786352;80;21527;-67
2022/08/16 08:38:42;;;;;;;6.70;3.60;;;;;;;;;;1760070;80;21020;-67
2022/08/16 08:41:09;;;;;;;7.90;3.75;;;;;;;;;;1784736;79;21050;-69
2022/08/16 08:43:35;;;;;;;5.05;3.02;;;;;;;;;;1777947;80;21028;-68
2022/08/16 08:46:01;;;;;;;5.62;3.60;;;;;;;;;;1791281;79;21004;-68
2022/08/16 08:48:28;;;;;;;9.08;3.80;;;;;;;;;;1787743;80;21064;-68
2022/08/16 08:50:55;;;;;;;7.17;3.75;;;;;;;;;;1791138;79;21115;-66
2022/08/16 08:53:25;;;;;;;6.67;3.52;;;;;;;;;;1775991;79;21046;-67
2022/08/16 08:55:50;;;;;;;7.03;3.90;;;;;;;;;;1787669;79;21052;-65
2022/08/16 08:58:17;;;;;;;7.37;3.25;;;;;;;;;;1797187;79;21535;-65
2022/08/16 09:00:45;;;;;;;7.35;3.55;;;;;;;;;;1787634;79;21012;-66
2022/08/16 09:03:13;;;;;;;4.90;3.70;;;;;;;;;;1783794;80;21009;-67
2022/08/16 09:05:41;;;;;;;8.13;3.77;;;;;;;;;;1786618;80;22350;-67
2022/08/16 09:08:09;;;;;;;7.42;4.80;;;;;;;;;;1784596;79;21081;-66
2022/08/16 09:10:54;;;;;;;6.42;4.20;;;;;;;;;;1781969;79;21621;-67
2022/08/16 09:13:23;;;;;;;8.08;3.70;;;;;;;;;;1785177;79;21107;-67
2022/08/16 09:15:50;;;;;;;5.45;3.90;;;;;;;;;;1754821;80;20980;-68
2022/08/16 09:18:16;;;;;;;6.10;4.10;;;;;;;;;;1780040;80;21435;-70
2022/08/16 09:20:43;;;;;;;6.80;3.60;;;;;;;;;;1759280;80;21044;-70
2022/08/16 09:23:10;;;;;;;8.48;3.80;;;;;;;;;;1743404;81;21080;-71
2022/08/16 09:25:38;;;;;;;5.53;3.30;;;;;;;;;;1694806;84;21077;-71
2022/08/16 09:28:09;;;;;;;7.80;3.42;;;;;;;;;;1771747;79;21024;-71
2022/08/16 09:30:37;;;;;;;4.67;3.30;;;;;;;;;;1765788;80;21480;-70
2022/08/16 09:33:04;;;;;;;6.47;4.00;;;;;;;;;;1731508;81;21040;-71
2022/08/16 09:35:30;;;;;;;7.03;4.20;;;;;;;;;;1735820;81;21009;-70
2022/08/16 09:37:56;;;;;;;6.83;3.52;;;;;;;;;;1733903;82;21591;-71
2022/08/16 09:40:22;;;;;;;4.90;3.60;;;;;;;;;;1729691;82;21096;-75
2022/08/16 09:42:49;;;;;;;8.38;5.03;;;;;;;;;;1736905;81;21036;-75
2022/08/16 09:45:15;;;;;;;6.83;4.87;;;;;;;;;;1704668;82;21036;-75
2022/08/16 09:47:41;;;;;;;9.13;5.37;;;;;;;;;;1709708;82;21559;-75
2022/08/16 09:50:08;;;;;;;5.87;4.30;;;;;;;;;;1695456;83;21022;-73
2022/08/16 09:52:36;;;;;;;8.00;4.80;;;;;;;;;;1766197;80;21031;-76
2022/08/16 09:55:05;;;;;;;9.98;5.03;;;;;;;;;;1766802;79;21043;-76
2022/08/16 09:57:31;;;;;;;7.80;4.75;;;;;;;;;;1766060;79;20985;-76
2022/08/16 09:59:59;;;;;;;7.87;4.92;;;;;;;;;;1762235;80;21091;-76
2022/08/16 10:02:26;;;;;;;7.12;4.10;;;;;;;;;;1764934;80;21012;-75
2022/08/16 10:04:53;;;;;;;7.10;4.30;;;;;;;;;;1766591;80;21531;-75
2022/08/16 10:07:19;;;;;;;7.12;4.80;;;;;;;;;;1756353;79;21043;-76
2022/08/16 10:09:46;;;;;;;7.42;5.37;;;;;;;;;;1767165;80;21055;-72
2022/08/16 10:14:57;;;;;;;5.80;4.83;;;;;;;;;;1769262;80;21035;-71
2022/08/16 10:17:23;;;;;;;6.97;5.12;;;;;;;;;;1764227;81;20976;-71
2022/08/16 10:19:51;;;;;;;8.73;5.90;;;;;;;;;;1770695;81;21032;-70
2022/08/16 10:22:17;;;;;;;7.58;5.03;;;;;;;;;;1768651;80;20985;-71
2022/08/16 10:24:43;;;;;;;7.35;4.83;;;;;;;;;;1764555;79;21034;-70
2022/08/16 10:27:10;;;;;;;6.85;5.55;;;;;;;;;;1769279;79;21051;-70
2022/08/16 10:29:36;;;;;;;7.45;5.17;;;;;;;;;;1761916;79;21016;-68
2022/08/16 10:44:51;;;;;;;5.92;4.60;;;;;;;;;;1800772;78;22960;-64
2022/08/16 10:47:19;;;;;;;8.15;4.90;;;;;;;;;;1766826;80;21096;-64
2022/08/16 10:49:45;;;;;;;7.80;4.80;;;;;;;;;;1768913;80;21047;-65
2022/08/16 10:52:12;;;;;;;8.73;5.90;;;;;;;;;;1766200;80;21072;-65
2022/08/16 10:54:39;;;;;;;6.87;5.47;;;;;;;;;;1764865;80;21004;-65
2022/08/16 10:57:05;;;;;;;6.62;5.05;;;;;;;;;;1777012;80;21044;-65
2022/08/16 10:59:32;;;;;;;8.45;5.60;;;;;;;;;;1750149;80;21099;-65
2022/08/16 11:02:02;;;;;;;7.83;5.60;;;;;;;;;;1777398;80;21064;-65
2022/08/16 11:04:31;;;;;;;7.30;4.58;;;;;;;;;;1733276;80;21144;-65
2022/08/16 11:06:57;;;;;;;8.88;5.50;;;;;;;;;;1761158;80;21060;-65
2022/08/16 11:09:24;;;;;;;6.87;5.50;;;;;;;;;;1760865;80;20974;-66
2022/08/16 11:11:50;;;;;;;6.70;5.62;;;;;;;;;;1774620;80;21100;-66
2022/08/16 11:14:17;;;;;;;8.08;4.97;;;;;;;;;;1773774;80;21575;-65
2022/08/16 11:16:43;;;;;;;7.50;5.50;;;;;;;;;;1771090;80;21508;-67
2022/08/16 11:19:10;;;;;;;9.45;6.00;;;;;;;;;;1767917;80;21037;-68
2022/08/16 11:21:36;;;;;;;7.97;5.97;;;;;;;;;;1769672;80;21103;-68
2022/08/16 11:24:03;;;;;;;7.08;5.30;;;;;;;;;;1768364;80;21025;-67
2022/08/16 11:26:30;;;;;;;9.50;5.95;;;;;;;;;;1768788;80;21543;-67
2022/08/16 11:28:56;;;;;;;9.60;7.05;;;;;;;;;;1764575;80;21080;-69
2022/08/16 11:31:23;;;;;;;8.90;6.67;;;;;;;;;;1698551;82;21139;-69
2022/08/16 11:33:49;;;;;;;9.08;6.30;;;;;;;;;;1723576;82;21131;-69
2022/08/16 11:36:15;;;;;;;8.48;5.55;;;;;;;;;;1731699;81;21095;-68
2022/08/16 11:38:41;;;;;;;8.25;5.53;;;;;;;;;;1729911;82;21522;-68
2022/08/16 11:41:08;;;;;;;6.15;4.50;;;;;;;;;;1731000;83;21570;-68
2022/08/16 11:43:35;;;;;;;6.40;5.05;;;;;;;;;;1729272;81;21571;-68
2022/08/16 11:46:03;;;;;;;9.23;6.00;;;;;;;;;;1697849;82;21008;-68
2022/08/16 11:48:29;;;;;;;9.13;5.95;;;;;;;;;;1714023;82;21091;-69
2022/08/16 11:50:58;;;;;;;9.75;5.92;;;;;;;;;;1696477;82;21072;-68
2022/08/16 11:53:24;;;;;;;7.40;6.05;;;;;;;;;;1702971;82;22278;-66
2022/08/16 11:55:52;;;;;;;9.35;5.60;;;;;;;;;;1704341;82;20972;-67
2022/08/16 11:58:18;;;;;;;9.35;5.30;;;;;;;;;;1702852;82;21548;-68
2022/08/16 12:00:45;;;;;;;8.58;5.08;;;;;;;;;;1701524;84;21040;-68
2022/08/16 12:03:12;;;;;;;6.85;5.47;;;;;;;;;;1697576;84;21080;-68
2022/08/16 12:05:39;;;;;;;7.95;6.05;;;;;;;;;;1704809;83;21469;-67
2022/08/16 12:08:05;;;;;;;8.63;5.95;;;;;;;;;;1705179;82;21056;-67
2022/08/16 12:10:32;;;;;;;8.60;5.47;;;;;;;;;;1711754;82;21072;-67
2022/08/16 12:12:58;;;;;;;9.03;5.53;;;;;;;;;;1703986;82;21088;-68
2022/08/16 12:15:25;;;;;;;6.97;5.17;;;;;;;;;;1709727;82;20981;-67
2022/08/16 12:17:54;;;;;;;9.70;7.00;;;;;;;;;;1705652;82;21017;-68
2022/08/16 12:20:24;;;;;;;10.30;7.08;;;;;;;;;;1700085;82;21107;-67
2022/08/16 12:22:53;;;;;;;10.45;6.72;;;;;;;;;;1701674;82;21574;-68
2022/08/16 12:25:19;;;;;;;8.28;6.00;;;;;;;;;;1702384;82;21025;-66
2022/08/16 12:27:46;;;;;;;10.88;6.87;;;;;;;;;;1712298;82;21091;-66
2022/08/16 12:30:13;;;;;;;50.20;42.13;;;;;;;;;;1708629;82;21001;-66
2022/08/16 12:32:40;;;;;;;33.10;23.75;;;;;;;;;;1706395;82;22327;-68
2022/08/16 12:35:07;;;;;;;26.07;20.85;;;;;;;;;;1700420;84;21120;-66
2022/08/16 12:37:34;;;;;;;8.75;7.85;;;;;;;;;;1699986;84;21009;-67
2022/08/16 12:40:00;;;;;;;12.55;6.95;;;;;;;;;;1714882;82;20974;-67
2022/08/16 12:42:28;;;;;;;11.10;7.40;;;;;;;;;;1716960;82;21052;-67
2022/08/16 12:44:54;;;;;;;9.23;6.92;;;;;;;;;;1722060;81;21123;-66
2022/08/16 12:50:06;;;;;;;7.78;6.92;;;;;;;;;;1728935;82;21615;-67
2022/08/16 12:52:32;;;;;;;9.20;7.22;;;;;;;;;;1734917;82;21524;-66
2022/08/16 12:54:59;;;;;;;9.55;7.12;;;;;;;;;;1717713;82;22174;-67
2022/08/16 12:57:25;;;;;;;10.50;6.35;;;;;;;;;;1702623;82;21028;-67
2022/08/16 12:59:51;;;;;;;11.48;6.72;;;;;;;;;;1713397;82;21034;-66
2022/08/16 13:02:18;;;;;;;11.05;7.15;;;;;;;;;;1713803;82;21083;-67
2022/08/16 13:04:44;;;;;;;9.55;6.80;;;;;;;;;;1714908;82;21457;-68
2022/08/16 13:07:12;;;;;;;9.98;7.40;;;;;;;;;;1728757;82;21045;-68
2022/08/16 13:09:50;;;;;;;10.88;8.35;;;;;;;;;;1718917;82;21009;-67
2022/08/16 13:12:17;;;;;;;9.75;6.90;;;;;;;;;;1711063;82;21079;-68
2022/08/16 13:14:37;;;;;;;8.88;7.92;;;;;;;;;;1716601;82;21048;-68
2022/08/16 13:17:04;;;;;;;9.65;6.92;;;;;;;;;;1719257;82;21020;-68
2022/08/16 13:19:30;;;;;;;12.95;9.08;;;;;;;;;;1717014;82;21052;-68
2022/08/16 13:21:56;;;;;;;9.68;7.55;;;;;;;;;;1716864;82;21036;-68
2022/08/16 13:24:23;;;;;;;10.32;7.72;;;;;;;;;;1717614;82;21435;-68
2022/08/16 13:26:49;;;;;;;27.67;24.23;;;;;;;;;;1710906;82;21059;-67
2022/08/16 13:29:15;;;;;;;71.57;57.45;;;;;;;;;;1710485;82;21015;-68
2022/08/16 13:31:41;;;;;;;32.88;26.75;;;;;;;;;;1708214;82;21024;-68
2022/08/16 13:34:07;;;;;;;11.70;8.63;;;;;;;;;;1713449;82;21578;-69
2022/08/16 13:36:34;;;;;;;10.23;6.87;;;;;;;;;;1700999;82;21075;-68
2022/08/16 13:39:00;;;;;;;9.73;6.67;;;;;;;;;;1704706;83;20977;-69
2022/08/16 13:41:26;;;;;;;9.60;6.90;;;;;;;;;;1715232;83;21028;-69
2022/08/16 13:43:53;;;;;;;8.93;6.40;;;;;;;;;;1711678;83;21080;-69
2022/08/16 13:46:19;;;;;;;7.08;5.60;;;;;;;;;;1712518;82;21512;-69
2022/08/16 13:48:45;;;;;;;7.67;5.87;;;;;;;;;;1699763;83;21020;-68
2022/08/16 13:51:13;;;;;;;8.68;5.92;;;;;;;;;;1716594;83;21075;-69
2022/08/16 13:53:39;;;;;;;8.40;5.20;;;;;;;;;;1728067;83;21308;-70
2022/08/16 13:56:05;;;;;;;8.08;5.45;;;;;;;;;;1704886;83;21575;-69
2022/08/16 13:58:32;;;;;;;7.53;5.33;;;;;;;;;;1717493;83;21079;-69
2022/08/16 14:00:59;;;;;;;7.47;5.85;;;;;;;;;;1719440;83;21016;-68
2022/08/16 14:03:26;;;;;;;9.88;5.67;;;;;;;;;;1719079;83;21121;-69
2022/08/16 14:05:52;;;;;;;7.85;4.90;;;;;;;;;;1712542;83;21036;-68
2022/08/16 14:08:19;;;;;;;6.72;5.92;;;;;;;;;;1719175;83;21037;-69
2022/08/16 14:10:45;;;;;;;8.85;6.15;;;;;;;;;;1715561;83;21080;-69
2022/08/16 14:13:13;;;;;;;9.35;6.25;;;;;;;;;;1719702;83;21062;-70
2022/08/16 14:15:40;;;;;;;8.28;6.37;;;;;;;;;;1711258;83;21099;-70
2022/08/16 14:18:06;;;;;;;9.68;6.00;;;;;;;;;;1706101;83;21071;-70
2022/08/16 14:20:35;;;;;;;8.13;6.50;;;;;;;;;;1702217;82;21083;-69
2022/08/16 14:23:01;;;;;;;10.45;6.95;;;;;;;;;;1715063;83;21373;-69
2022/08/16 14:25:27;;;;;;;56.13;38.08;;;;;;;;;;1724032;82;21046;-66
2022/08/16 14:27:53;;;;;;;12.78;10.30;;;;;;;;;;1733919;82;21033;-66
2022/08/16 14:30:21;;;;;;;18.05;14.20;;;;;;;;;;1719195;82;21145;-66
2022/08/16 14:32:48;;;;;;;13.83;7.80;;;;;;;;;;1725444;82;21096;-65
2022/08/16 14:35:15;;;;;;;10.38;7.28;;;;;;;;;;1725563;82;22183;-66
2022/08/16 14:37:43;;;;;;;11.00;7.10;;;;;;;;;;1719107;82;20937;-67
2022/08/16 14:40:10;;;;;;;7.60;6.60;;;;;;;;;;1724835;82;20964;-67
2022/08/16 14:42:36;;;;;;;9.30;7.10;;;;;;;;;;1725229;82;20945;-67
2022/08/16 14:45:02;;;;;;;8.50;7.10;;;;;;;;;;1726563;82;20976;-67
2022/08/16 14:47:28;;;;;;;11.00;6.92;;;;;;;;;;1716568;82;20989;-65
2022/08/16 14:49:54;;;;;;;12.18;9.28;;;;;;;;;;1714180;82;21048;-65
2022/08/16 14:52:20;;;;;;;8.78;7.10;;;;;;;;;;1727500;82;20993;-65
2022/08/16 14:54:47;;;;;;;9.38;8.30;;;;;;;;;;1728157;82;21575;-66
2022/08/16 14:57:13;;;;;;;8.98;8.10;;;;;;;;;;1714333;82;21013;-66
2022/08/16 14:59:39;;;;;;;32.38;26.37;;;;;;;;;;1727520;82;20977;-68
2022/08/16 15:02:16;;;;;;;48.58;37.42;;;;;;;;;;1719753;82;21022;-68
2022/08/16 15:04:42;;;;;;;14.95;11.40;;;;;;;;;;1714541;82;21152;-68
2022/08/16 15:07:10;;;;;;;10.32;8.38;;;;;;;;;;1711427;83;21087;-69
2022/08/16 15:09:37;;;;;;;9.08;7.20;;;;;;;;;;1707985;82;21025;-69
2022/08/16 15:12:07;;;;;;;10.78;7.28;;;;;;;;;;1714234;82;21079;-69
2022/08/16 15:14:35;;;;;;;8.73;6.22;;;;;;;;;;1727567;82;21016;-69
2022/08/16 15:17:01;;;;;;;7.83;6.75;;;;;;;;;;1708504;83;21050;-68
2022/08/16 15:19:27;;;;;;;9.35;7.05;;;;;;;;;;1712767;82;21067;-68